Budd Lake, New Jersey
Current Conditions -  °F | °C
As of 1:35 AM on Saturday 20 Dec 2014 (Local Time) from KMMU Reporting Station
Overcast Overcast  
Wind Chill: 34°   Ceiling: 2700
Heat Index: 34°   Visibility: 10mi
Dew Point: 21°   Wind: 3mph
Humidity: 60%   Direction: 10°N
Pressure: 30.19"   Gusts: NA
Location:  40.86°N, 74.73°W
Report Text: KMMU 200635Z AUTO 01003KT 10SM OVC027 01/M06 A3019 RMK AO2
Loading
Personal Weather Stations






























Interactive Weather Map New forecast layout! Learn more

10-Day Weather Forecast

Advertisements
Track Severe Weather on mobile